Weather at Wien-Aspern ÖAMTC Heliport

Public forecast

Using degrees Celsius for public forecast. Weather courtesy of forecast.io.

Closest aviation weather report (METAR) to Wien-Aspern ÖAMTC Heliport

Closest report is Vienna International Airport, 7.1 nm (13.1 km) SSE.

2024/06/16 21:50 (retrieved 34 minutes ago)

LOWW 162150Z 18005KT CAVOK 15/13 Q1013 NOSIG

Closest aviation forecast (TAF) to Wien-Aspern ÖAMTC Heliport

Closest forecast is Vienna International Airport, 7.1 nm (13.1 km) SSE.

2024/06/16 21:21 (retrieved 1 hour ago)

TAF LOWW 162015Z 1621/1803 15004KT CAVOK TX27/1714Z TN12/1703Z TEMPO 1714/1717 FEW050CB PROB30 TEMPO 1800/1803 FEW050CB